Terminal Aerodrome Forecast
Issued by NWS

Home | Current Version | Previous Version | Text Only | Print | Product List | Glossary On
Versions: 1 2 3 4 5 6 7 8 9 10 11 12 13 14 15 16 17 18 19 20 21 22 23 24 25 26 27 28 29 30 31 32 33 34 35 36 37 38 39
000
FTAK31 PANC 010426 AAB
TAFACD
TAF AMD
PACD 010426Z 0104/0124 02012KT P6SM SCT025 BKN035
      TEMPO 0104/0106 BKN025
     FM010600 36010KT P6SM BKN025
     FM011300 31009KT 3SM BR BKN003
     FM011800 33007KT P6SM SCT005 BKN015
     FM012100 35014KT P6SM SCT020 BKN080=

USA.gov is the U.S. government's official web portal to all federal, state and local government web resources and services.